createdAt,value
2022-11-20T00:01:37.220Z,98789.28
2022-11-20T00:04:05.567Z,98782.67
2022-11-20T00:06:33.704Z,98780.45
2022-11-20T00:09:02.914Z,98780.45
2022-11-20T00:11:32.628Z,98779.17
2022-11-20T00:14:02.848Z,98774.75
2022-11-20T00:16:33.306Z,98769.70
2022-11-20T00:19:02.138Z,98768.26
2022-11-20T00:21:31.283Z,98769.64
2022-11-20T00:23:59.849Z,98771.48
2022-11-20T00:26:29.215Z,98762.27
2022-11-20T00:29:02.044Z,98764.13
2022-11-20T00:31:31.478Z,98759.96
2022-11-20T00:33:59.614Z,98761.20
2022-11-20T00:36:29.756Z,98758.59
2022-11-20T00:38:59.310Z,98757.62
2022-11-20T00:41:28.951Z,98761.71
2022-11-20T00:43:57.807Z,98759.97
2022-11-20T00:46:28.301Z,98764.63
2022-11-20T00:48:57.003Z,98767.34
2022-11-20T00:51:27.406Z,98765.61
2022-11-20T00:53:57.455Z,98763.71
2022-11-20T00:56:25.693Z,98757.94
2022-11-20T00:58:54.037Z,98761.29
2022-11-20T01:01:27.029Z,98754.61
2022-11-20T01:03:59.004Z,98760.29
2022-11-20T01:06:30.286Z,98764.41
2022-11-20T01:09:01.747Z,98757.98
2022-11-20T01:11:32.970Z,98753.52
2022-11-20T01:14:03.097Z,98752.77
2022-11-20T01:16:37.352Z,98753.59
2022-11-20T01:19:08.008Z,98755.39
2022-11-20T01:21:39.015Z,98752.58
2022-11-20T01:24:09.303Z,98753.08
2022-11-20T01:26:39.423Z,98753.95
2022-11-20T01:29:12.576Z,98757.70
2022-11-20T01:31:40.902Z,98757.36
2022-11-20T01:34:13.415Z,98764.75
2022-11-20T01:36:42.840Z,98758.06
2022-11-20T01:39:20.057Z,98758.23
2022-11-20T01:42:10.424Z,98754.11
2022-11-20T01:45:25.375Z,98750.21
2022-11-20T01:47:53.650Z,98759.20
2022-11-20T01:50:33.651Z,98754.17
2022-11-20T01:53:09.613Z,98757.00
2022-11-20T01:55:43.223Z,98760.16
2022-11-20T01:58:11.502Z,98758.30
2022-11-20T02:00:39.725Z,98757.13
2022-11-20T02:03:27.701Z,98751.23
2022-11-20T02:06:08.989Z,98751.27
2022-11-20T02:08:39.142Z,98748.20
2022-11-20T02:11:07.654Z,98745.39
2022-11-20T02:13:45.101Z,98746.65
2022-11-20T02:16:26.020Z,98743.00
2022-11-20T02:18:57.785Z,98735.41
2022-11-20T02:21:30.500Z,98735.77
2022-11-20T02:24:05.711Z,98734.44
2022-11-20T02:26:58.977Z,98729.80
2022-11-20T02:29:38.426Z,98728.05
2022-11-20T02:32:06.810Z,98727.84
2022-11-20T02:34:34.906Z,98723.56
2022-11-20T02:37:03.087Z,98721.02
2022-11-20T02:39:31.416Z,98720.25
2022-11-20T02:42:02.182Z,98720.86
2022-11-20T02:44:30.375Z,98721.86
2022-11-20T02:46:59.844Z,98717.47
2022-11-20T02:49:28.051Z,98714.70
2022-11-20T02:51:56.269Z,98706.85
2022-11-20T02:54:25.440Z,98703.06
2022-11-20T02:56:53.703Z,98702.31
2022-11-20T02:59:22.190Z,98702.67
2022-11-20T03:01:50.888Z,98700.52
2022-11-20T03:04:19.115Z,98701.75
2022-11-20T03:06:47.125Z,98703.65
2022-11-20T03:09:15.166Z,98703.34
2022-11-20T03:11:43.533Z,98703.54
2022-11-20T03:14:11.594Z,98710.10
2022-11-20T03:16:39.824Z,98711.64
2022-11-20T03:19:08.088Z,98711.63
2022-11-20T03:21:36.916Z,98711.04
2022-11-20T03:24:05.598Z,98708.20
2022-11-20T03:26:34.531Z,98700.98
2022-11-20T03:29:05.366Z,98704.64
2022-11-20T03:31:41.446Z,98708.54
2022-11-20T03:34:11.904Z,98710.66
2022-11-20T03:36:41.302Z,98711.60
2022-11-20T03:39:09.829Z,98713.30
2022-11-20T03:41:40.366Z,98713.71
2022-11-20T03:44:10.889Z,98717.64
2022-11-20T03:46:39.941Z,98719.60
2022-11-20T03:49:08.076Z,98716.40
2022-11-20T03:51:37.073Z,98719.28
2022-11-20T03:54:08.700Z,98719.91
2022-11-20T03:56:39.285Z,98719.42
2022-11-20T03:59:07.831Z,98721.52
2022-11-20T04:01:38.575Z,98726.82
2022-11-20T04:04:07.138Z,98719.90
2022-11-20T04:06:38.616Z,98717.56
2022-11-20T04:09:06.936Z,98722.48
2022-11-20T04:11:38.403Z,98724.94
2022-11-20T04:14:08.066Z,98729.59
2022-11-20T04:16:37.423Z,98734.55
2022-11-20T04:19:10.024Z,98736.09
2022-11-20T04:21:38.513Z,98735.69
2022-11-20T04:24:07.146Z,98734.18
2022-11-20T04:26:36.046Z,98734.07
2022-11-20T04:29:04.957Z,98729.52
2022-11-20T04:31:34.926Z,98728.85
2022-11-20T04:34:05.390Z,98728.42
2022-11-20T04:36:34.277Z,98726.30
2022-11-20T04:39:05.072Z,98718.98
2022-11-20T04:41:36.139Z,98718.47
2022-11-20T04:44:06.215Z,98716.54
2022-11-20T04:46:39.817Z,98720.28
2022-11-20T04:49:11.481Z,98719.08
2022-11-20T04:51:39.793Z,98721.01
2022-11-20T04:54:07.916Z,98717.41
2022-11-20T04:56:36.039Z,98713.38
2022-11-20T04:59:04.436Z,98709.41
2022-11-20T05:01:33.778Z,98705.80
2022-11-20T05:04:02.096Z,98705.09
2022-11-20T05:06:30.216Z,98706.59
2022-11-20T05:08:58.744Z,98701.83
2022-11-20T05:11:30.008Z,98700.27
2022-11-20T05:14:00.046Z,98699.88
2022-11-20T05:16:29.543Z,98697.95
2022-11-20T05:18:57.717Z,98702.00
2022-11-20T05:21:26.116Z,98695.86
2022-11-20T05:23:54.526Z,98703.63
2022-11-20T05:26:23.280Z,98698.15
2022-11-20T05:28:52.757Z,98694.69
2022-11-20T05:31:27.215Z,98694.70
2022-11-20T05:33:58.274Z,98697.19
2022-11-20T05:36:26.824Z,98696.23
2022-11-20T05:39:01.080Z,98694.33
2022-11-20T05:41:30.943Z,98692.08
2022-11-20T05:43:59.873Z,98686.69
2022-11-20T05:46:29.510Z,98686.31
2022-11-20T05:48:59.305Z,98684.67
2022-11-20T05:51:27.953Z,98684.64
2022-11-20T05:53:59.700Z,98685.23
2022-11-20T05:56:28.175Z,98687.02
2022-11-20T05:58:57.141Z,98681.65
2022-11-20T06:01:29.577Z,98678.30
2022-11-20T06:03:57.727Z,98682.61
2022-11-20T06:06:27.046Z,98682.88
2022-11-20T06:08:56.403Z,98683.29
2022-11-20T06:11:24.623Z,98680.91
2022-11-20T06:13:52.915Z,98682.63
2022-11-20T06:16:21.490Z,98681.26
2022-11-20T06:18:49.860Z,98681.35
2022-11-20T06:21:20.623Z,98679.07
2022-11-20T06:23:51.202Z,98681.20
2022-11-20T06:26:28.688Z,98678.63
2022-11-20T06:28:57.371Z,98676.09
2022-11-20T06:31:26.983Z,98678.55
2022-11-20T06:33:55.475Z,98685.33
2022-11-20T06:36:24.806Z,98684.39
2022-11-20T06:38:53.050Z,98679.12
2022-11-20T06:41:23.004Z,98675.88
2022-11-20T06:43:51.938Z,98674.77
2022-11-20T06:46:21.578Z,98676.40
2022-11-20T06:48:50.516Z,98678.51
2022-11-20T06:51:19.545Z,98678.45
2022-11-20T06:53:47.873Z,98678.39
2022-11-20T06:56:16.299Z,98676.14
2022-11-20T06:58:47.115Z,98673.01
2022-11-20T07:01:16.663Z,98675.21
2022-11-20T07:03:45.791Z,98678.14
2022-11-20T07:06:16.298Z,98675.11
2022-11-20T07:08:44.455Z,98671.71
2022-11-20T07:11:13.201Z,98669.91
2022-11-20T07:13:41.555Z,98664.75
2022-11-20T07:16:10.119Z,98658.09
2022-11-20T07:18:38.484Z,98656.84
2022-11-20T07:21:10.621Z,98654.34
2022-11-20T07:23:41.453Z,98655.11
2022-11-20T07:26:12.381Z,98656.41
2022-11-20T07:28:40.703Z,98653.52
2022-11-20T07:31:09.106Z,98650.66
2022-11-20T07:33:39.140Z,98651.80
2022-11-20T07:36:07.685Z,98649.56
2022-11-20T07:38:35.934Z,98648.11
2022-11-20T07:41:04.295Z,98641.73
2022-11-20T07:43:35.870Z,98641.59
2022-11-20T07:46:08.450Z,98644.38
2022-11-20T07:48:36.742Z,98641.16
2022-11-20T07:51:04.983Z,98636.36
2022-11-20T07:53:33.523Z,98634.53
2022-11-20T07:56:02.570Z,98633.50
2022-11-20T07:58:35.627Z,98641.23
2022-11-20T08:01:12.716Z,98638.29
2022-11-20T08:03:40.962Z,98638.98
2022-11-20T08:06:09.953Z,98632.05
2022-11-20T08:08:43.247Z,98627.90
2022-11-20T08:11:30.533Z,98626.91
2022-11-20T08:14:14.595Z,98624.59
2022-11-20T08:16:49.765Z,98625.90
2022-11-20T08:19:19.870Z,98617.96
2022-11-20T08:21:48.675Z,98613.95
2022-11-20T08:24:17.049Z,98615.11
2022-11-20T08:26:45.706Z,98614.45
2022-11-20T08:29:17.057Z,98612.10
2022-11-20T08:31:45.386Z,98609.98
2022-11-20T08:34:35.177Z,98609.52
2022-11-20T08:37:03.989Z,98602.66
2022-11-20T08:39:32.807Z,98601.54
2022-11-20T08:42:01.573Z,98599.10
2022-11-20T08:44:30.106Z,98593.92
2022-11-20T08:46:58.366Z,98589.88
2022-11-20T08:49:26.747Z,98591.55
2022-11-20T08:51:56.304Z,98591.45
2022-11-20T08:54:24.619Z,98592.92
2022-11-20T08:56:52.999Z,98601.39
2022-11-20T08:59:37.288Z,98598.95
2022-11-20T09:02:09.989Z,98598.30
2022-11-20T09:04:38.780Z,98600.76
2022-11-20T09:07:06.986Z,98602.35
2022-11-20T09:09:35.898Z,98596.89
2022-11-20T09:12:04.440Z,98596.45
2022-11-20T09:14:32.832Z,98595.02
2022-11-20T09:17:01.086Z,98597.96
2022-11-20T09:19:35.369Z,98597.73
2022-11-20T09:22:05.029Z,98599.64
2022-11-20T09:24:33.143Z,98599.60
2022-11-20T09:27:03.945Z,98597.21
2022-11-20T09:29:32.132Z,98599.27
2022-11-20T09:32:00.148Z,98601.33
2022-11-20T09:34:28.259Z,98601.29
2022-11-20T09:36:56.640Z,98597.71
2022-11-20T09:39:24.981Z,98597.86
2022-11-20T09:42:20.503Z,98596.20
2022-11-20T09:44:59.497Z,98587.17
2022-11-20T09:47:50.366Z,98583.84
2022-11-20T09:50:21.302Z,98587.60
2022-11-20T09:53:14.320Z,98585.59
2022-11-20T09:55:43.983Z,98582.48
2022-11-20T09:58:26.766Z,98586.89
2022-11-20T10:00:57.835Z,98581.66
2022-11-20T10:03:57.309Z,98580.45
2022-11-20T10:06:33.988Z,98576.33
2022-11-20T10:09:21.328Z,98572.94
2022-11-20T10:12:06.921Z,98569.84
2022-11-20T10:14:43.885Z,98575.30
2022-11-20T10:17:46.150Z,98570.44
2022-11-20T10:20:22.432Z,98569.67
2022-11-20T10:23:02.206Z,98563.52
2022-11-20T10:25:45.774Z,98563.33
2022-11-20T10:28:32.811Z,98557.27
2022-11-20T10:31:09.344Z,98555.77
2022-11-20T10:34:05.042Z,98552.11
2022-11-20T10:36:40.130Z,98547.86
2022-11-20T10:39:16.350Z,98550.02
2022-11-20T10:41:50.965Z,98542.50
2022-11-20T10:45:05.622Z,98543.45
2022-11-20T10:47:35.108Z,98539.73
2022-11-20T10:50:11.102Z,98541.04
2022-11-20T10:52:57.313Z,98541.71
2022-11-20T10:55:41.468Z,98538.11
2022-11-20T10:58:18.138Z,98539.52
2022-11-20T11:01:07.011Z,98537.15
2022-11-20T11:03:35.863Z,98532.05
2022-11-20T11:06:35.024Z,98527.80
2022-11-20T11:09:14.460Z,98528.23
2022-11-20T11:11:45.235Z,98522.55
2022-11-20T11:14:16.649Z,98520.73
2022-11-20T11:16:56.663Z,98517.90
2022-11-20T11:19:25.923Z,98514.84
2022-11-20T11:21:57.939Z,98513.60
2022-11-20T11:24:41.816Z,98512.35
2022-11-20T11:27:19.225Z,98513.11
2022-11-20T11:29:47.973Z,98507.85
2022-11-20T11:32:19.706Z,98509.09
2022-11-20T11:35:04.075Z,98503.98
2022-11-20T11:37:37.408Z,98504.80
2022-11-20T11:40:24.632Z,98504.51
2022-11-20T11:43:03.551Z,98502.72
2022-11-20T11:45:34.488Z,98503.15
2022-11-20T11:48:05.252Z,98503.90
2022-11-20T11:50:34.274Z,98498.86
2022-11-20T11:53:16.480Z,98492.70
2022-11-20T11:56:09.477Z,98491.59
2022-11-20T11:58:55.086Z,98486.07
2022-11-20T12:01:42.863Z,98475.39
2022-11-20T12:04:47.536Z,98470.55
2022-11-20T12:07:55.102Z,98471.93
2022-11-20T12:10:26.219Z,98472.93
2022-11-20T12:13:03.267Z,98470.27
2022-11-20T12:15:35.226Z,98467.99
2022-11-20T12:18:05.668Z,98469.88
2022-11-20T12:20:46.526Z,98463.31
2022-11-20T12:23:43.505Z,98460.61
2022-11-20T12:26:40.034Z,98457.63
2022-11-20T12:29:20.046Z,98449.09
2022-11-20T12:32:12.412Z,98443.97
2022-11-20T12:34:49.664Z,98437.70
2022-11-20T12:37:38.857Z,98435.97
2022-11-20T12:40:40.053Z,98428.92
2022-11-20T12:43:47.653Z,98431.36
2022-11-20T12:46:32.859Z,98421.45
2022-11-20T12:49:25.716Z,98421.83
2022-11-20T12:52:18.944Z,98428.24
2022-11-20T12:55:18.717Z,98424.02
2022-11-20T12:58:12.805Z,98421.19
2022-11-20T13:01:07.976Z,98417.98
2022-11-20T13:03:46.696Z,98413.52
2022-11-20T13:06:20.103Z,98415.21
2022-11-20T13:08:57.169Z,98410.83
2022-11-20T13:12:03.810Z,98409.43
2022-11-20T13:14:35.172Z,98406.64
2022-11-20T13:17:18.578Z,98399.90
2022-11-20T13:19:55.981Z,98393.66
2022-11-20T13:22:28.989Z,98399.37
2022-11-20T13:25:00.333Z,98399.98
2022-11-20T13:27:32.063Z,98399.77
2022-11-20T13:30:12.955Z,98396.33
2022-11-20T13:32:50.742Z,98394.13
2022-11-20T13:35:55.549Z,98391.79
2022-11-20T13:38:23.766Z,98390.16
2022-11-20T13:40:53.623Z,98385.69
2022-11-20T13:43:27.982Z,98383.56
2022-11-20T13:45:57.212Z,98380.08
2022-11-20T13:48:29.479Z,98378.52
2022-11-20T13:51:19.217Z,98377.75
2022-11-20T13:54:23.912Z,98373.91
2022-11-20T13:56:59.843Z,98370.89
2022-11-20T13:59:53.831Z,98365.11
2022-11-20T14:02:24.395Z,98369.42
2022-11-20T14:04:55.173Z,98371.67
2022-11-20T14:07:28.490Z,98369.86
2022-11-20T14:09:59.061Z,98373.23
2022-11-20T14:12:32.280Z,98370.20
2022-11-20T14:15:00.559Z,98369.23
2022-11-20T14:17:34.929Z,98366.30
2022-11-20T14:20:07.286Z,98369.03
2022-11-20T14:22:36.385Z,98362.33
2022-11-20T14:25:19.274Z,98360.53
2022-11-20T14:27:53.100Z,98357.35
2022-11-20T14:30:27.874Z,98350.86
2022-11-20T14:33:03.074Z,98349.53
2022-11-20T14:35:36.459Z,98345.86
2022-11-20T14:38:05.248Z,98345.02
2022-11-20T14:40:37.350Z,98340.05
2022-11-20T14:43:27.237Z,98340.02
2022-11-20T14:45:58.619Z,98334.95
2022-11-20T14:48:33.482Z,98337.60
2022-11-20T14:51:01.589Z,98333.15
2022-11-20T14:53:30.330Z,98332.73
2022-11-20T14:56:00.550Z,98332.27
2022-11-20T14:58:34.907Z,98327.03
2022-11-20T15:01:07.519Z,98323.02
2022-11-20T15:03:41.152Z,98317.78
2022-11-20T15:06:13.115Z,98313.00
2022-11-20T15:08:52.364Z,98310.99
2022-11-20T15:11:38.990Z,98304.88
2022-11-20T15:14:08.175Z,98305.72
2022-11-20T15:16:36.539Z,98306.88
2022-11-20T15:19:17.951Z,98304.93
2022-11-20T15:21:46.165Z,98307.80
2022-11-20T15:24:14.573Z,98305.52
2022-11-20T15:26:43.504Z,98307.27
2022-11-20T15:29:20.284Z,98304.60
2022-11-20T15:31:48.411Z,98305.05
2022-11-20T15:34:16.815Z,98302.66
2022-11-20T15:36:45.263Z,98296.46
2022-11-20T15:39:13.401Z,98294.23
2022-11-20T15:41:41.691Z,98294.58
2022-11-20T15:44:09.863Z,98289.98
2022-11-20T15:46:41.191Z,98292.41
2022-11-20T15:49:15.354Z,98294.86
2022-11-20T15:51:49.110Z,98292.09
2022-11-20T15:54:23.687Z,98295.67
2022-11-20T15:56:54.875Z,98298.69
2022-11-20T15:59:23.137Z,98292.29
2022-11-20T16:01:51.190Z,98284.98
2022-11-20T16:04:19.600Z,98285.39
2022-11-20T16:06:48.033Z,98282.25
2022-11-20T16:09:16.228Z,98285.37
2022-11-20T16:11:44.549Z,98289.08
2022-11-20T16:14:31.363Z,98291.10
2022-11-20T16:16:59.593Z,98286.31
2022-11-20T16:19:28.111Z,98284.21
2022-11-20T16:22:02.441Z,98285.10
2022-11-20T16:24:31.644Z,98288.13
2022-11-20T16:26:59.888Z,98290.14
2022-11-20T16:29:27.989Z,98288.77
2022-11-20T16:31:57.804Z,98287.88
2022-11-20T16:34:26.223Z,98286.21
2022-11-20T16:36:54.412Z,98287.97
2022-11-20T16:39:24.140Z,98287.81
2022-11-20T16:41:52.799Z,98288.40
2022-11-20T16:44:21.996Z,98289.70
2022-11-20T16:46:50.905Z,98290.88
2022-11-20T16:49:19.275Z,98293.55
2022-11-20T16:51:47.415Z,98295.36
2022-11-20T16:54:20.512Z,98295.80
2022-11-20T16:56:51.144Z,98296.88
2022-11-20T16:59:19.497Z,98298.44
2022-11-20T17:01:47.775Z,98297.61
2022-11-20T17:04:18.686Z,98295.98
2022-11-20T17:06:48.109Z,98291.77
2022-11-20T17:09:16.408Z,98287.35
2022-11-20T17:11:44.563Z,98285.34
2022-11-20T17:14:13.329Z,98285.11
2022-11-20T17:16:41.679Z,98281.51
2022-11-20T17:19:10.118Z,98283.83
2022-11-20T17:21:39.900Z,98280.13
2022-11-20T17:24:10.841Z,98279.73
2022-11-20T17:26:40.655Z,98281.55
2022-11-20T17:29:11.839Z,98277.83
2022-11-20T17:31:40.874Z,98279.87
2022-11-20T17:34:12.181Z,98278.91
2022-11-20T17:36:45.513Z,98278.30
2022-11-20T17:39:15.676Z,98277.98
2022-11-20T17:42:07.052Z,98277.54
2022-11-20T17:44:35.440Z,98272.92
2022-11-20T17:47:06.520Z,98268.62
2022-11-20T17:49:34.650Z,98264.78
2022-11-20T17:52:03.145Z,98262.20
2022-11-20T17:54:35.951Z,98257.48
2022-11-20T17:57:23.128Z,98251.23
2022-11-20T17:59:51.187Z,98248.59
2022-11-20T18:02:19.382Z,98244.83
2022-11-20T18:04:47.698Z,98240.08
2022-11-20T18:07:15.909Z,98234.20
2022-11-20T18:09:44.418Z,98235.64
2022-11-20T18:12:12.914Z,98230.80
2022-11-20T18:14:41.842Z,98228.06
2022-11-20T18:17:14.284Z,98229.33
2022-11-20T18:20:06.806Z,98231.10
2022-11-20T18:22:33.963Z,98231.86
2022-11-20T18:25:05.155Z,98231.02
2022-11-20T18:27:33.194Z,98233.88
2022-11-20T18:30:01.552Z,98229.80
2022-11-20T18:32:29.724Z,98231.83
2022-11-20T18:34:57.899Z,98232.19
2022-11-20T18:37:26.666Z,98230.54
2022-11-20T18:39:56.105Z,98230.06
2022-11-20T18:42:43.067Z,98229.92
2022-11-20T18:45:11.475Z,98229.23
2022-11-20T18:47:40.229Z,98234.51
2022-11-20T18:50:09.942Z,98236.31
2022-11-20T18:52:44.712Z,98239.61
2022-11-20T18:55:13.717Z,98234.56
2022-11-20T18:57:42.024Z,98234.47
2022-11-20T19:00:10.756Z,98236.45
2022-11-20T19:02:42.752Z,98228.55
2022-11-20T19:05:14.135Z,98235.30
2022-11-20T19:07:43.185Z,98237.52
2022-11-20T19:10:12.709Z,98234.02
2022-11-20T19:12:40.846Z,98233.13
2022-11-20T19:15:09.377Z,98231.70
2022-11-20T19:17:37.833Z,98233.02
2022-11-20T19:20:07.076Z,98231.61
2022-11-20T19:22:35.203Z,98227.20
2022-11-20T19:25:03.384Z,98229.02
2022-11-20T19:27:31.541Z,98229.36
2022-11-20T19:30:03.358Z,98222.23
2022-11-20T19:32:32.715Z,98221.90
2022-11-20T19:35:01.103Z,98220.00
2022-11-20T19:37:29.351Z,98216.14
2022-11-20T19:39:59.663Z,98220.80
2022-11-20T19:42:27.988Z,98223.06
2022-11-20T19:44:58.231Z,98222.67
2022-11-20T19:47:46.117Z,98220.90
2022-11-20T19:50:16.488Z,98227.89
2022-11-20T19:52:44.667Z,98222.29
2022-11-20T19:55:12.914Z,98221.07
2022-11-20T19:57:41.112Z,98224.80
2022-11-20T20:00:09.876Z,98224.39
2022-11-20T20:02:37.901Z,98222.23
2022-11-20T20:05:07.143Z,98220.91
2022-11-20T20:07:35.311Z,98221.55
2022-11-20T20:10:03.565Z,98227.42
2022-11-20T20:12:31.872Z,98226.88
2022-11-20T20:14:59.929Z,98229.92
2022-11-20T20:17:28.072Z,98232.52
2022-11-20T20:19:56.549Z,98237.25
2022-11-20T20:22:24.654Z,98239.34
2022-11-20T20:24:52.769Z,98240.59
2022-11-20T20:27:20.975Z,98243.30
2022-11-20T20:29:49.102Z,98243.71
2022-11-20T20:32:20.118Z,98244.55
2022-11-20T20:34:48.494Z,98243.16
2022-11-20T20:37:16.776Z,98238.12
2022-11-20T20:39:44.756Z,98233.02
2022-11-20T20:42:13.010Z,98228.61
2022-11-20T20:44:59.694Z,98225.66
2022-11-20T20:47:32.088Z,98226.02
2022-11-20T20:50:01.349Z,98217.61
2022-11-20T20:52:29.485Z,98216.33
2022-11-20T20:54:57.633Z,98217.48
2022-11-20T20:57:25.894Z,98217.76
2022-11-20T20:59:55.492Z,98216.61
2022-11-20T21:02:24.175Z,98221.90
2022-11-20T21:04:52.514Z,98222.01
2022-11-20T21:07:20.936Z,98222.77
2022-11-20T21:09:49.127Z,98222.74
2022-11-20T21:12:17.351Z,98220.55
2022-11-20T21:14:45.695Z,98220.36
2022-11-20T21:17:17.363Z,98220.87
2022-11-20T21:19:45.445Z,98221.70
2022-11-20T21:22:13.743Z,98224.28
2022-11-20T21:24:44.036Z,98226.37
2022-11-20T21:27:12.219Z,98233.51
2022-11-20T21:29:40.402Z,98234.57
2022-11-20T21:32:08.462Z,98240.94
2022-11-20T21:34:36.505Z,98244.13
2022-11-20T21:37:05.831Z,98242.88
2022-11-20T21:39:33.913Z,98244.71
2022-11-20T21:42:02.233Z,98246.11
2022-11-20T21:44:31.950Z,98245.58
2022-11-20T21:47:00.446Z,98250.23
2022-11-20T21:49:28.754Z,98254.36
2022-11-20T21:51:57.092Z,98256.36
2022-11-20T21:54:25.757Z,98258.27
2022-11-20T21:56:54.045Z,98262.23
2022-11-20T21:59:22.594Z,98265.23
2022-11-20T22:01:51.167Z,98267.70
2022-11-20T22:04:20.161Z,98262.58
2022-11-20T22:06:48.840Z,98263.65
2022-11-20T22:09:18.107Z,98265.95
2022-11-20T22:11:46.364Z,98270.83
2022-11-20T22:14:20.914Z,98268.09
2022-11-20T22:16:50.593Z,98265.45
2022-11-20T22:19:20.725Z,98262.30
2022-11-20T22:21:50.886Z,98265.11
2022-11-20T22:24:23.085Z,98268.98
2022-11-20T22:26:51.847Z,98267.81
2022-11-20T22:29:21.451Z,98273.00
2022-11-20T22:31:57.835Z,98266.99
2022-11-20T22:34:28.934Z,98266.72
2022-11-20T22:36:57.100Z,98261.37
2022-11-20T22:39:25.324Z,98258.27
2022-11-20T22:41:53.427Z,98255.02
2022-11-20T22:44:22.523Z,98257.45
2022-11-20T22:46:51.165Z,98251.17
2022-11-20T22:49:19.321Z,98253.25
2022-11-20T22:51:47.567Z,98249.36
2022-11-20T22:54:16.017Z,98248.77
2022-11-20T22:56:45.046Z,98253.02
2022-11-20T22:59:13.299Z,98255.42
2022-11-20T23:01:41.507Z,98256.69
2022-11-20T23:04:11.124Z,98258.65
2022-11-20T23:06:39.576Z,98260.38
2022-11-20T23:09:10.288Z,98258.38
2022-11-20T23:11:39.023Z,98256.23
2022-11-20T23:14:13.375Z,98257.14
2022-11-20T23:16:42.185Z,98263.84
2022-11-20T23:19:13.238Z,98262.56
2022-11-20T23:21:43.002Z,98261.82
2022-11-20T23:24:11.462Z,98263.94
2022-11-20T23:26:41.625Z,98264.03
2022-11-20T23:29:10.307Z,98264.23
2022-11-20T23:31:38.698Z,98262.45
2022-11-20T23:34:07.022Z,98260.39
2022-11-20T23:36:36.234Z,98267.15
2022-11-20T23:39:04.533Z,98268.83
2022-11-20T23:41:33.205Z,98266.69
2022-11-20T23:44:01.337Z,98266.22
2022-11-20T23:46:29.533Z,98265.27
2022-11-20T23:48:57.644Z,98267.06
2022-11-20T23:51:25.852Z,98270.23
2022-11-20T23:53:54.078Z,98265.96
2022-11-20T23:56:22.286Z,98267.09
2022-11-20T23:58:50.465Z,98264.98
